»·PEaware :: UAL180 KSFO-KBFL

UAL180 :: KSFO-KBFL

FLIGHT INFORMATION

Flight Status: Arrived
Operator:
United Airlines
More flights by this operator :: More flights under this callsign
Pilot: Etienne B. (28927)
Aircraft: AIRBUS A320
(A320)
More flights by this aircraft type
Origin: KSFO San Francisco Intl
United States
Destination: KBFL Meadows
United States
More flights between these airports :: More routes between these airports
Route: WESLA4 EBAYE AVE EHF
File this flight plan on PilotEdge
Remarks: RMK / SIMBRIEF
Altitude:
(Current/Filed)
29,000ft
Speed:
(Current/Filed)
457kts
Departed: 06-May-20 05:12 PM
Arrived: 06-May-20 05:55 PM
Distance/Time
Traveled:
207nm/0:43
Distance/Time
To Go:
Arrived

Flight Plot

Page will automatically refresh every two minutes.

Flight plan parsing failed; only flown route is shown


Map Options




Map Legend


Flown Route
Filed Route
Departure Airport
Arrival Airport
Navaid (VOR, NDB)
Fix

Horizontal Profiles

Position Reports

Time Latitude Longitude Heading Altitude Ground
Speed
06-May-20 16:52 37.619443 -122.384828 119 32ft 0kts
06-May-20 16:53 37.619443 -122.384828 119 32ft 0kts
06-May-20 16:54 37.619443 -122.384828 119 32ft 0kts
06-May-20 16:55 37.619443 -122.384828 119 32ft 0kts
06-May-20 16:56 37.619443 -122.384828 119 32ft 0kts
06-May-20 16:57 37.619443 -122.384828 119 32ft 0kts
06-May-20 16:58 37.619577 -122.385125 115 32ft 2kts
06-May-20 16:59 37.619426 -122.385736 31 32ft 0kts
06-May-20 17:00 37.619365 -122.385776 28 32ft 0kts
06-May-20 17:01 37.619365 -122.385776 28 32ft 0kts
06-May-20 17:02 37.619365 -122.385776 28 32ft 0kts
06-May-20 17:03 37.619365 -122.385776 28 32ft 0kts
06-May-20 17:04 37.619370 -122.385772 28 32ft 1kts
06-May-20 17:05 37.620455 -122.385016 37 32ft 11kts
06-May-20 17:06 37.618900 -122.380221 118 32ft 17kts
06-May-20 17:07 37.616605 -122.373552 117 16ft 25kts
06-May-20 17:08 37.612686 -122.365529 118 11ft 28kts
06-May-20 17:09 37.610484 -122.359672 77 9ft 7kts
06-May-20 17:10 37.612424 -122.360080 298 9ft 38kts
06-May-20 17:11 37.630988 -122.402670 299 1538ft 179kts
06-May-20 17:12 37.662936 -122.462034 298 2733ft 222kts
06-May-20 17:13 37.635867 -122.518003 184 3264ft 268kts
06-May-20 17:14 37.562893 -122.488132 163 5051ft 281kts
06-May-20 17:15 37.487168 -122.463583 145 6266ft 291kts
06-May-20 17:16 37.429714 -122.391522 134 7268ft 292kts
06-May-20 17:17 37.373276 -122.315750 133 9589ft 304kts
06-May-20 17:18 37.311957 -122.232918 133 11477ft 357kts
06-May-20 17:19 37.242000 -122.138393 133 13660ft 381kts
06-May-20 17:20 37.168334 -122.039029 133 15831ft 397kts
06-May-20 17:21 37.091642 -121.935953 133 17811ft 411kts
06-May-20 17:22 37.012426 -121.829832 134 19659ft 423kts
06-May-20 17:23 36.930998 -121.721112 134 21355ft 433kts
06-May-20 17:24 36.847579 -121.610117 134 22882ft 443kts
06-May-20 17:25 36.762181 -121.496880 135 24268ft 453kts
06-May-20 17:26 36.674889 -121.381545 135 25579ft 461kts
06-May-20 17:27 36.586359 -121.264987 136 26762ft 469kts
06-May-20 17:28 36.496410 -121.146964 137 28096ft 470kts
06-May-20 17:29 36.407940 -121.028039 134 29114ft 469kts
06-May-20 17:30 36.322485 -120.905208 134 29088ft 472kts
06-May-20 17:31 36.236626 -120.782274 134 29088ft 472kts
06-May-20 17:32 36.150578 -120.659520 134 29084ft 472kts
06-May-20 17:33 36.064471 -120.537138 134 29086ft 472kts
06-May-20 17:34 35.978204 -120.414967 134 29098ft 472kts
06-May-20 17:35 35.895067 -120.297466 135 29102ft 435kts
06-May-20 17:36 35.813528 -120.190099 138 29089ft 427kts
06-May-20 17:37 35.731054 -120.085211 137 26093ft 427kts
06-May-20 17:38 35.651735 -119.981371 121 22898ft 411kts
06-May-20 17:39 35.623512 -119.850029 101 19923ft 388kts
06-May-20 17:40 35.600896 -119.724601 101 17066ft 366kts
06-May-20 17:41 35.579554 -119.607944 100 14893ft 328kts
06-May-20 17:42 35.560795 -119.505942 100 13432ft 288kts
06-May-20 17:43 35.525849 -119.421330 123 11599ft 276kts
06-May-20 17:44 35.483325 -119.343707 123 9554ft 273kts
06-May-20 17:45 35.442221 -119.266686 123 7528ft 269kts
06-May-20 17:46 35.402017 -119.189976 123 5491ft 266kts
06-May-20 17:47 35.363283 -119.115410 126 3903ft 246kts
06-May-20 17:48 35.322887 -119.051701 129 2961ft 233kts
06-May-20 17:50 35.302200 -118.991456 67 2543ft 174kts
06-May-20 17:51 35.339826 -118.964207 357 2309ft 160kts
06-May-20 17:52 35.376985 -118.988112 317 1933ft 149kts
06-May-20 17:53 35.407222 -119.024008 313 1199ft 152kts
06-May-20 17:54 35.435598 -119.058426 315 494ft 101kts
06-May-20 17:55 35.440226 -119.063318 11 502ft 2kts
06-May-20 17:56 35.440802 -119.062509 113 505ft 1kts
06-May-20 17:57 35.437391 -119.057856 95 502ft 19kts
06-May-20 17:58 35.437115 -119.055127 85 505ft 0kts

Navigation Log

Ident Type
Flight plan parsing failed, navigation log unavailable